<?xml version="1.0" encoding="UTF-8" standalone="no" ?>
<gpx xmlns="http://www.topografix.com/GPX/1/1" xmlns:xsi="http://www.w3.org/2001/XMLSchema-instance" xsi:schemaLocation="http://www.topografix.com/GPX/1/1 http://www.topografix.com/GPX/1/1/gpx.xsd" version="1.1" creator="VisuGPX - https://www.visugpx.com">
  <metadata>
    <name>AubryLePantou_17.5km</name>
    <desc><![CDATA[gnerando idor: 8146124]]></desc>
  </metadata>
  <trk>
    <name><![CDATA[AubryLePanthou_17.5km-8146124]]></name>
    <extensions>
      <line xmlns="http://www.topografix.com/GPX/gpx_style/0/2">
        <color>0000FF</color>
        <width>4</width>
      </line>
    </extensions>
    <trkseg>
      <trkpt lat="48.85259" lon="0.23161">
        <ele>201</ele>
        <time>2023-10-29T19:05:31Z</time>
      </trkpt>
      <trkpt lat="48.85187" lon="0.23226">
        <ele>201</ele>
        <time>2023-10-29T19:07:23Z</time>
      </trkpt>
      <trkpt lat="48.85311" lon="0.23303">
        <ele>188</ele>
        <time>2023-10-29T19:10:22Z</time>
      </trkpt>
      <trkpt lat="48.8539" lon="0.23823">
        <ele>167</ele>
        <time>2023-10-29T19:18:10Z</time>
      </trkpt>
      <trkpt lat="48.85446" lon="0.2378">
        <ele>164</ele>
        <time>2023-10-29T19:19:34Z</time>
      </trkpt>
      <trkpt lat="48.85511" lon="0.23801">
        <ele>165</ele>
        <time>2023-10-29T19:21:03Z</time>
      </trkpt>
      <trkpt lat="48.85791" lon="0.23557">
        <ele>162</ele>
        <time>2023-10-29T19:28:13Z</time>
      </trkpt>
      <trkpt lat="48.85859" lon="0.23428">
        <ele>162</ele>
        <time>2023-10-29T19:30:38Z</time>
      </trkpt>
      <trkpt lat="48.85895" lon="0.23269">
        <ele>162</ele>
        <time>2023-10-29T19:33:06Z</time>
      </trkpt>
      <trkpt lat="48.86014" lon="0.23127">
        <ele>170</ele>
        <time>2023-10-29T19:36:28Z</time>
      </trkpt>
      <trkpt lat="48.86164" lon="0.23097">
        <ele>173</ele>
        <time>2023-10-29T19:39:50Z</time>
      </trkpt>
      <trkpt lat="48.86299" lon="0.23166">
        <ele>172</ele>
        <time>2023-10-29T19:43:00Z</time>
      </trkpt>
      <trkpt lat="48.86257" lon="0.22964">
        <ele>156</ele>
        <time>2023-10-29T19:46:06Z</time>
      </trkpt>
      <trkpt lat="48.8635" lon="0.22539">
        <ele>130</ele>
        <time>2023-10-29T19:52:39Z</time>
      </trkpt>
      <trkpt lat="48.86327" lon="0.22333">
        <ele>137</ele>
        <time>2023-10-29T19:55:42Z</time>
      </trkpt>
      <trkpt lat="48.86429" lon="0.22042">
        <ele>172</ele>
        <time>2023-10-29T20:00:32Z</time>
      </trkpt>
      <trkpt lat="48.86395" lon="0.21818">
        <ele>200</ele>
        <time>2023-10-29T20:03:54Z</time>
      </trkpt>
      <trkpt lat="48.86341" lon="0.2166">
        <ele>214</ele>
        <time>2023-10-29T20:06:30Z</time>
      </trkpt>
      <trkpt lat="48.8637" lon="0.21527">
        <ele>222</ele>
        <time>2023-10-29T20:08:33Z</time>
      </trkpt>
      <trkpt lat="48.86375" lon="0.21085">
        <ele>230</ele>
        <time>2023-10-29T20:15:01Z</time>
      </trkpt>
      <trkpt lat="48.86302" lon="0.20964">
        <ele>232</ele>
        <time>2023-10-29T20:17:25Z</time>
      </trkpt>
      <trkpt lat="48.86432" lon="0.20913">
        <ele>223</ele>
        <time>2023-10-29T20:20:24Z</time>
      </trkpt>
      <trkpt lat="48.86536" lon="0.20973">
        <ele>210</ele>
        <time>2023-10-29T20:22:53Z</time>
      </trkpt>
      <trkpt lat="48.86776" lon="0.21188">
        <ele>190</ele>
        <time>2023-10-29T20:29:05Z</time>
      </trkpt>
      <trkpt lat="48.86855" lon="0.21115">
        <ele>167</ele>
        <time>2023-10-29T20:31:08Z</time>
      </trkpt>
      <trkpt lat="48.8703" lon="0.21261">
        <ele>159</ele>
        <time>2023-10-29T20:35:34Z</time>
      </trkpt>
      <trkpt lat="48.87281" lon="0.21342">
        <ele>152</ele>
        <time>2023-10-29T20:41:17Z</time>
      </trkpt>
      <trkpt lat="48.87341" lon="0.21252">
        <ele>146</ele>
        <time>2023-10-29T20:43:09Z</time>
      </trkpt>
      <trkpt lat="48.87488" lon="0.21295">
        <ele>153</ele>
        <time>2023-10-29T20:46:29Z</time>
      </trkpt>
      <trkpt lat="48.87739" lon="0.2157">
        <ele>157</ele>
        <time>2023-10-29T20:53:22Z</time>
      </trkpt>
      <trkpt lat="48.87739" lon="0.21243">
        <ele>186</ele>
        <time>2023-10-29T20:58:09Z</time>
      </trkpt>
      <trkpt lat="48.87691" lon="0.21037">
        <ele>197</ele>
        <time>2023-10-29T21:01:21Z</time>
      </trkpt>
      <trkpt lat="48.87524" lon="0.20724">
        <ele>214</ele>
        <time>2023-10-29T21:07:14Z</time>
      </trkpt>
      <trkpt lat="48.8742" lon="0.2048">
        <ele>218</ele>
        <time>2023-10-29T21:11:30Z</time>
      </trkpt>
      <trkpt lat="48.87423" lon="0.2014">
        <ele>235</ele>
        <time>2023-10-29T21:16:28Z</time>
      </trkpt>
      <trkpt lat="48.87547" lon="0.2014">
        <ele>225</ele>
        <time>2023-10-29T21:19:14Z</time>
      </trkpt>
      <trkpt lat="48.87617" lon="0.19896">
        <ele>226</ele>
        <time>2023-10-29T21:23:07Z</time>
      </trkpt>
      <trkpt lat="48.8788" lon="0.2002">
        <ele>210</ele>
        <time>2023-10-29T21:29:15Z</time>
      </trkpt>
      <trkpt lat="48.8801" lon="0.20128">
        <ele>206</ele>
        <time>2023-10-29T21:32:32Z</time>
      </trkpt>
      <trkpt lat="48.88117" lon="0.20304">
        <ele>203</ele>
        <time>2023-10-29T21:36:03Z</time>
      </trkpt>
      <trkpt lat="48.88221" lon="0.20565">
        <ele>195</ele>
        <time>2023-10-29T21:40:30Z</time>
      </trkpt>
      <trkpt lat="48.88298" lon="0.20776">
        <ele>188</ele>
        <time>2023-10-29T21:44:02Z</time>
      </trkpt>
      <trkpt lat="48.88266" lon="0.20943">
        <ele>181</ele>
        <time>2023-10-29T21:46:35Z</time>
      </trkpt>
      <trkpt lat="48.88317" lon="0.21033">
        <ele>175</ele>
        <time>2023-10-29T21:48:19Z</time>
      </trkpt>
      <trkpt lat="48.88405" lon="0.20956">
        <ele>175</ele>
        <time>2023-10-29T21:50:35Z</time>
      </trkpt>
      <trkpt lat="48.88509" lon="0.21089">
        <ele>165</ele>
        <time>2023-10-29T21:53:36Z</time>
      </trkpt>
      <trkpt lat="48.88574" lon="0.21067">
        <ele>157</ele>
        <time>2023-10-29T21:55:05Z</time>
      </trkpt>
      <trkpt lat="48.88789" lon="0.21299">
        <ele>134</ele>
        <time>2023-10-29T22:00:57Z</time>
      </trkpt>
      <trkpt lat="48.88862" lon="0.21578">
        <ele>121</ele>
        <time>2023-10-29T22:05:20Z</time>
      </trkpt>
      <trkpt lat="48.88789" lon="0.21836">
        <ele>120</ele>
        <time>2023-10-29T22:09:26Z</time>
      </trkpt>
      <trkpt lat="48.88921" lon="0.21943">
        <ele>129</ele>
        <time>2023-10-29T22:12:46Z</time>
      </trkpt>
      <trkpt lat="48.88918" lon="0.22046">
        <ele>141</ele>
        <time>2023-10-29T22:14:17Z</time>
      </trkpt>
      <trkpt lat="48.88628" lon="0.22127">
        <ele>143</ele>
        <time>2023-10-29T22:20:50Z</time>
      </trkpt>
      <trkpt lat="48.88506" lon="0.22239">
        <ele>144</ele>
        <time>2023-10-29T22:24:00Z</time>
      </trkpt>
      <trkpt lat="48.8845" lon="0.22248">
        <ele>142</ele>
        <time>2023-10-29T22:25:15Z</time>
      </trkpt>
      <trkpt lat="48.88447" lon="0.22368">
        <ele>152</ele>
        <time>2023-10-29T22:27:01Z</time>
      </trkpt>
      <trkpt lat="48.88097" lon="0.22432">
        <ele>136</ele>
        <time>2023-10-29T22:34:51Z</time>
      </trkpt>
      <trkpt lat="48.8806" lon="0.22522">
        <ele>140</ele>
        <time>2023-10-29T22:36:24Z</time>
      </trkpt>
      <trkpt lat="48.87984" lon="0.22578">
        <ele>143</ele>
        <time>2023-10-29T22:38:17Z</time>
      </trkpt>
      <trkpt lat="48.88021" lon="0.22874">
        <ele>156</ele>
        <time>2023-10-29T22:42:41Z</time>
      </trkpt>
      <trkpt lat="48.87942" lon="0.23153">
        <ele>182</ele>
        <time>2023-10-29T22:47:08Z</time>
      </trkpt>
      <trkpt lat="48.87908" lon="0.22861">
        <ele>166</ele>
        <time>2023-10-29T22:51:28Z</time>
      </trkpt>
      <trkpt lat="48.87792" lon="0.2269">
        <ele>150</ele>
        <time>2023-10-29T22:55:04Z</time>
      </trkpt>
      <trkpt lat="48.87634" lon="0.22921">
        <ele>150</ele>
        <time>2023-10-29T22:59:56Z</time>
      </trkpt>
      <trkpt lat="48.87595" lon="0.23338">
        <ele>151</ele>
        <time>2023-10-29T23:06:06Z</time>
      </trkpt>
      <trkpt lat="48.87389" lon="0.23316">
        <ele>153</ele>
        <time>2023-10-29T23:10:42Z</time>
      </trkpt>
      <trkpt lat="48.87106" lon="0.23097">
        <ele>162</ele>
        <time>2023-10-29T23:17:45Z</time>
      </trkpt>
      <trkpt lat="48.86903" lon="0.23029">
        <ele>157</ele>
        <time>2023-10-29T23:22:23Z</time>
      </trkpt>
      <trkpt lat="48.86731" lon="0.23115">
        <ele>154</ele>
        <time>2023-10-29T23:26:24Z</time>
      </trkpt>
      <trkpt lat="48.86669" lon="0.23351">
        <ele>158</ele>
        <time>2023-10-29T23:30:07Z</time>
      </trkpt>
      <trkpt lat="48.86669" lon="0.23651">
        <ele>163</ele>
        <time>2023-10-29T23:34:31Z</time>
      </trkpt>
      <trkpt lat="48.86621" lon="0.23634">
        <ele>164</ele>
        <time>2023-10-29T23:35:37Z</time>
      </trkpt>
      <trkpt lat="48.86573" lon="0.23475">
        <ele>157</ele>
        <time>2023-10-29T23:38:10Z</time>
      </trkpt>
      <trkpt lat="48.86454" lon="0.23419">
        <ele>170</ele>
        <time>2023-10-29T23:40:56Z</time>
      </trkpt>
      <trkpt lat="48.86339" lon="0.23415">
        <ele>186</ele>
        <time>2023-10-29T23:43:30Z</time>
      </trkpt>
      <trkpt lat="48.86344" lon="0.23591">
        <ele>188</ele>
        <time>2023-10-29T23:46:05Z</time>
      </trkpt>
      <trkpt lat="48.86432" lon="0.2387">
        <ele>189</ele>
        <time>2023-10-29T23:50:36Z</time>
      </trkpt>
      <trkpt lat="48.86353" lon="0.24106">
        <ele>189</ele>
        <time>2023-10-29T23:54:29Z</time>
      </trkpt>
      <trkpt lat="48.8635" lon="0.24282">
        <ele>200</ele>
        <time>2023-10-29T23:57:03Z</time>
      </trkpt>
      <trkpt lat="48.86243" lon="0.24389">
        <ele>224</ele>
        <time>2023-10-29T23:59:54Z</time>
      </trkpt>
      <trkpt lat="48.86169" lon="0.24698">
        <ele>243</ele>
        <time>2023-10-30T00:04:43Z</time>
      </trkpt>
      <trkpt lat="48.86248" lon="0.24835">
        <ele>245</ele>
        <time>2023-10-30T00:07:23Z</time>
      </trkpt>
      <trkpt lat="48.86107" lon="0.25011">
        <ele>251</ele>
        <time>2023-10-30T00:11:26Z</time>
      </trkpt>
      <trkpt lat="48.86034" lon="0.24908">
        <ele>249</ele>
        <time>2023-10-30T00:13:39Z</time>
      </trkpt>
      <trkpt lat="48.85828" lon="0.24793">
        <ele>234</ele>
        <time>2023-10-30T00:18:32Z</time>
      </trkpt>
      <trkpt lat="48.85746" lon="0.24818">
        <ele>222</ele>
        <time>2023-10-30T00:20:24Z</time>
      </trkpt>
      <trkpt lat="48.85672" lon="0.24754">
        <ele>208</ele>
        <time>2023-10-30T00:22:17Z</time>
      </trkpt>
      <trkpt lat="48.85593" lon="0.24853">
        <ele>207</ele>
        <time>2023-10-30T00:24:34Z</time>
      </trkpt>
      <trkpt lat="48.85559" lon="0.24634">
        <ele>198</ele>
        <time>2023-10-30T00:27:51Z</time>
      </trkpt>
      <trkpt lat="48.85373" lon="0.24445">
        <ele>209</ele>
        <time>2023-10-30T00:32:50Z</time>
      </trkpt>
      <trkpt lat="48.85427" lon="0.24072">
        <ele>188</ele>
        <time>2023-10-30T00:38:25Z</time>
      </trkpt>
      <trkpt lat="48.85308" lon="0.2326">
        <ele>192</ele>
        <time>2023-10-30T00:50:36Z</time>
      </trkpt>
      <trkpt lat="48.85167" lon="0.23248">
        <ele>202</ele>
        <time>2023-10-30T00:53:44Z</time>
      </trkpt>
      <trkpt lat="48.85271" lon="0.23157">
        <ele>201</ele>
        <time>2023-10-30T00:56:24Z</time>
      </trkpt>
    </trkseg>
  </trk>
</gpx>